Time;durP1;ratioP1;P1;durP2;ratioP2;P2;SDS_P1;SDS_P2;PMS_P1;PMS_P2;Temp;Humidity;BMP_temperature;BMP_pressure;BME280_temperature;BME280_humidity;BME280_pressure;Samples;Min_cycle;Max_cycle;Signal;HPM_P1;HPM_P2
2022/05/12 00:01:42;;;;;;;21.27;13.77;;;12.80;99.90;12.10;99264;;;;583952;246;24125;-78
2022/05/12 00:04:10;;;;;;;20.53;15.43;;;12.80;99.90;12.10;99271;;;;584021;246;24099;-78
2022/05/12 00:06:38;;;;;;;19.00;14.03;;;12.80;99.90;12.20;99274;;;;584195;242;24084;-81
2022/05/12 00:09:06;;;;;;;19.80;14.87;;;12.80;99.90;12.20;99289;;;;584236;246;24100;-82
2022/05/12 00:11:34;;;;;;;18.50;15.03;;;12.90;99.90;12.20;99283;;;;584453;242;24133;-81
2022/05/12 00:14:03;;;;;;;21.43;14.77;;;12.80;99.90;12.20;99266;;;;584404;246;24096;-80
2022/05/12 00:16:30;;;;;;;20.40;15.63;;;12.90;99.90;12.20;99273;;;;584350;246;24126;-84
2022/05/12 00:18:58;;;;;;;20.37;15.60;;;12.90;99.90;12.20;99258;;;;584179;246;24150;-81
2022/05/12 00:21:29;;;;;;;18.30;14.87;;;12.90;99.90;12.20;99239;;;;584249;246;24113;-83
2022/05/12 00:23:58;;;;;;;17.00;13.63;;;12.90;99.90;12.20;99238;;;;583761;243;24193;-84
2022/05/12 00:26:29;;;;;;;17.13;14.10;;;12.90;99.90;12.20;99235;;;;583596;244;24096;-82
2022/05/12 00:28:59;;;;;;;17.80;13.90;;;12.90;99.90;12.20;99243;;;;584121;242;24096;-83
2022/05/12 00:31:31;;;;;;;13.73;12.33;;;12.80;99.90;12.10;99253;;;;584155;246;24162;-80
2022/05/12 00:33:56;;;;;;;16.20;12.87;;;12.80;99.90;12.10;99250;;;;583476;242;24107;-82
2022/05/12 00:36:27;;;;;;;15.70;14.03;;;12.80;99.90;12.10;99252;;;;584054;242;24147;-82
2022/05/12 00:38:52;;;;;;;17.20;13.33;;;12.80;99.90;12.10;99262;;;;583884;242;24091;-85
2022/05/12 00:41:20;;;;;;;19.93;13.77;;;12.70;99.90;12.00;99248;;;;584182;242;24110;-84
2022/05/12 00:43:55;;;;;;;18.20;14.27;;;12.70;99.90;11.90;99233;;;;584290;246;24090;-81
2022/05/12 00:46:24;;;;;;;15.63;13.60;;;12.50;99.90;11.80;99245;;;;584198;246;24158;-80
2022/05/12 00:48:51;;;;;;;17.70;14.27;;;12.50;99.90;11.80;99258;;;;584075;246;24128;-84
2022/05/12 00:51:32;;;;;;;15.37;12.87;;;12.40;99.90;11.70;99256;;;;584014;246;24154;-84
2022/05/12 00:54:00;;;;;;;17.13;13.30;;;12.30;99.90;11.60;99250;;;;584119;246;24143;-84
2022/05/12 00:56:28;;;;;;;17.83;13.40;;;12.30;99.90;11.50;99227;;;;584034;246;24120;-85
2022/05/12 00:58:59;;;;;;;23.30;15.13;;;12.20;99.90;11.50;99219;;;;583954;246;24161;-84
2022/05/12 01:01:29;;;;;;;17.93;15.00;;;12.10;99.90;11.40;99228;;;;584083;244;24133;-85
2022/05/12 01:03:57;;;;;;;19.77;14.93;;;12.10;99.90;11.30;99226;;;;585510;245;24151;-85
2022/05/12 01:06:25;;;;;;;19.17;15.07;;;11.90;99.90;11.20;99236;;;;584862;246;24102;-85
2022/05/12 01:08:53;;;;;;;26.92;22.95;;;11.90;99.90;11.20;99234;;;;579807;242;46250;-86
2022/05/12 01:11:24;;;;;;;25.97;19.47;;;11.90;99.90;11.20;99227;;;;585282;246;24154;-84
2022/05/12 01:13:55;;;;;;;23.67;17.40;;;11.80;99.90;11.10;99218;;;;585180;242;24121;-83
2022/05/12 01:16:38;;;;;;;28.53;17.10;;;11.80;99.90;11.10;99206;;;;584840;243;24068;-83
2022/05/12 01:19:05;;;;;;;21.43;16.87;;;11.70;99.90;11.00;99213;;;;584846;246;24143;-81
2022/05/12 01:21:37;;;;;;;25.37;17.20;;;11.70;99.90;10.90;99210;;;;585180;241;24107;-84
2022/05/12 01:24:01;;;;;;;22.47;16.07;;;11.60;99.90;10.90;99211;;;;584567;246;24135;-82
2022/05/12 01:26:29;;;;;;;21.13;16.50;;;11.60;99.90;10.80;99214;;;;585000;246;24096;-81
2022/05/12 01:29:01;;;;;;;21.50;15.17;;;11.50;99.90;10.80;99211;;;;585082;246;24083;-83
2022/05/12 01:31:25;;;;;;;20.50;15.20;;;11.50;99.90;10.70;99201;;;;584411;242;24112;-85
2022/05/12 01:33:56;;;;;;;22.33;16.27;;;11.40;99.90;10.70;99211;;;;584694;242;24118;-85
2022/05/12 01:36:21;;;;;;;25.17;15.97;;;11.40;99.90;10.60;99215;;;;584286;242;24099;-84
2022/05/12 01:38:48;;;;;;;24.07;16.37;;;11.30;99.90;10.60;99195;;;;584493;246;24115;-84
2022/05/12 01:41:16;;;;;;;20.23;16.23;;;11.30;99.90;10.60;99208;;;;584432;242;24116;-82
2022/05/12 01:43:48;;;;;;;22.30;16.33;;;11.30;99.90;10.60;99227;;;;584019;242;24130;-83
2022/05/12 01:46:12;;;;;;;25.20;15.67;;;11.30;99.90;10.60;99213;;;;584025;243;24135;-82
2022/05/12 01:48:44;;;;;;;23.27;16.23;;;11.30;99.90;10.60;99224;;;;584460;246;24081;-80
2022/05/12 01:51:08;;;;;;;24.20;17.20;;;11.30;99.90;10.60;99196;;;;584225;243;24127;-82
2022/05/12 01:53:39;;;;;;;23.30;17.03;;;11.20;99.90;10.50;99198;;;;585376;242;24156;-83
2022/05/12 01:56:07;;;;;;;28.87;17.13;;;11.20;99.90;10.50;99192;;;;584479;246;24087;-84
2022/05/12 01:58:32;;;;;;;23.57;16.57;;;11.20;99.90;10.50;99190;;;;584218;246;26279;-83
2022/05/12 02:01:01;;;;;;;22.07;17.57;;;11.20;99.90;10.40;99200;;;;584519;242;24104;-85
2022/05/12 02:03:32;;;;;;;23.47;17.40;;;11.10;99.90;10.40;99210;;;;584497;242;24088;-84
2022/05/12 02:06:00;;;;;;;24.60;17.57;;;11.10;99.90;10.40;99211;;;;584584;246;24109;-82
2022/05/12 02:08:25;;;;;;;24.10;16.53;;;11.10;99.90;10.40;99207;;;;584112;246;24110;-84
2022/05/12 02:10:53;;;;;;;22.50;16.13;;;11.10;99.90;10.40;99215;;;;584704;242;24112;-85
2022/05/12 02:13:25;;;;;;;29.97;17.90;;;11.10;99.90;10.50;99216;;;;585661;244;24078;-81
2022/05/12 02:15:53;;;;;;;28.37;18.30;;;11.10;99.90;10.50;99228;;;;585537;245;24159;-84
2022/05/12 02:18:21;;;;;;;26.80;18.67;;;11.20;99.90;10.50;99238;;;;584601;246;24130;-85
2022/05/12 02:20:47;;;;;;;30.87;19.77;;;11.30;99.90;10.60;99241;;;;584239;243;24143;-83
2022/05/12 02:23:18;;;;;;;29.83;20.13;;;11.30;99.90;10.70;99241;;;;584536;246;24161;-84
2022/05/12 02:25:42;;;;;;;29.53;18.07;;;11.40;99.90;10.70;99227;;;;584103;246;24139;-84
2022/05/12 02:28:13;;;;;;;26.37;20.73;;;11.40;99.90;10.70;99219;;;;584248;242;24104;-83
2022/05/12 02:30:38;;;;;;;26.03;18.63;;;11.40;99.90;10.70;99213;;;;583705;242;24100;-82
2022/05/12 02:33:10;;;;;;;29.63;18.80;;;11.40;99.90;10.80;99214;;;;584300;246;24122;-81
2022/05/12 02:35:35;;;;;;;26.40;20.00;;;11.50;99.90;10.80;99199;;;;582925;246;24113;-78
2022/05/12 02:38:03;;;;;;;30.33;20.67;;;11.50;99.90;10.80;99191;;;;583542;242;24100;-78
2022/05/12 02:40:31;;;;;;;31.13;19.60;;;11.50;99.90;10.80;99173;;;;583952;242;24066;-83
2022/05/12 02:42:59;;;;;;;25.83;18.77;;;11.50;99.90;10.80;99164;;;;583489;246;24119;-81
2022/05/12 02:45:31;;;;;;;28.70;19.17;;;11.50;99.90;10.90;99167;;;;583587;242;25168;-80
2022/05/12 02:47:55;;;;;;;27.30;19.97;;;11.60;99.90;10.90;99154;;;;582972;242;24091;-79
2022/05/12 02:50:24;;;;;;;36.03;18.77;;;11.60;99.90;10.90;99156;;;;583062;246;24162;-78
2022/05/12 02:52:53;;;;;;;26.43;18.50;;;11.60;99.90;10.90;99148;;;;583158;242;24174;-79
2022/05/12 02:55:21;;;;;;;23.97;18.73;;;11.60;99.90;10.90;99137;;;;583018;246;24121;-81
2022/05/12 02:57:49;;;;;;;29.07;19.20;;;11.60;99.90;10.90;99139;;;;583246;246;24139;-81
2022/05/12 03:00:21;;;;;;;27.10;19.13;;;11.60;99.90;11.00;99143;;;;583117;242;24132;-79
2022/05/12 03:02:45;;;;;;;27.03;21.10;;;11.70;99.90;11.00;99147;;;;582774;242;24093;-78
2022/05/12 03:05:16;;;;;;;24.83;18.77;;;11.70;99.90;11.10;99149;;;;583632;242;24088;-85
2022/05/12 03:07:45;;;;;;;27.73;18.93;;;11.80;99.90;11.10;99143;;;;583760;246;24084;-84
2022/05/12 03:10:09;;;;;;;31.00;19.90;;;11.80;99.90;11.10;99147;;;;583400;246;24153;-85
2022/05/12 03:12:37;;;;;;;26.70;19.63;;;11.80;99.90;11.20;99144;;;;584011;242;24203;-85
2022/05/12 03:15:07;;;;;;;25.40;18.73;;;11.90;99.90;11.20;99127;;;;584152;242;24096;-85
2022/05/12 03:17:38;;;;;;;30.90;20.47;;;11.90;99.90;11.20;99119;;;;584674;246;24106;-84
2022/05/12 03:20:03;;;;;;;25.07;19.13;;;11.90;99.90;11.30;99140;;;;584386;242;24083;-86
2022/05/12 03:22:32;;;;;;;28.70;20.40;;;12.00;99.90;11.30;99131;;;;584364;246;24088;-85
2022/05/12 03:25:00;;;;;;;30.27;21.10;;;12.00;99.90;11.30;99121;;;;585441;244;24165;-84
2022/05/12 03:27:28;;;;;;;26.37;19.47;;;12.00;99.90;11.30;99138;;;;585999;242;24107;-84
2022/05/12 03:29:56;;;;;;;26.60;20.53;;;12.00;99.90;11.40;99111;;;;585537;246;24112;-83
2022/05/12 03:32:27;;;;;;;28.03;19.53;;;12.10;99.90;11.40;99119;;;;585276;246;24084;-84
2022/05/12 03:34:53;;;;;;;30.50;20.27;;;12.10;99.90;11.50;99121;;;;584607;246;24068;-83
2022/05/12 03:37:23;;;;;;;28.73;19.43;;;12.20;99.90;11.50;99126;;;;584755;242;24088;-81
2022/05/12 03:39:48;;;;;;;29.33;18.97;;;12.20;99.90;11.50;99134;;;;584623;242;24119;-83
2022/05/12 03:42:18;;;;;;;34.40;27.13;;;12.30;99.90;11.60;99132;;;;579941;246;36606;-84
2022/05/12 03:44:47;;;;;;;32.27;27.93;;;12.30;99.90;11.60;99135;;;;579417;242;42949;-83
2022/05/12 03:47:19;;;;;;;24.57;20.13;;;12.30;99.90;11.70;99128;;;;584413;246;24128;-80
2022/05/12 03:49:43;;;;;;;27.03;20.70;;;12.40;99.90;11.70;99118;;;;583313;242;24151;-84
2022/05/12 03:52:11;;;;;;;32.13;28.07;;;12.40;99.90;11.70;99121;;;;579145;246;35317;-82
2022/05/12 03:54:42;;;;;;;28.60;23.20;;;12.40;99.90;11.70;99128;;;;584198;246;24113;-83
2022/05/12 03:57:09;;;;;;;26.80;20.20;;;12.40;99.90;11.70;99130;;;;583812;246;24142;-85
2022/05/12 03:59:38;;;;;;;27.87;20.57;;;12.40;99.90;11.70;99133;;;;583797;246;24084;-83
2022/05/12 04:02:02;;;;;;;28.20;20.83;;;12.40;99.90;11.70;99137;;;;583781;243;24076;-84
2022/05/12 04:04:30;;;;;;;30.87;20.93;;;12.40;99.90;11.70;99147;;;;584128;246;24132;-83
2022/05/12 04:07:01;;;;;;;26.73;20.70;;;12.40;99.90;11.70;99144;;;;584381;246;24096;-82
2022/05/12 04:09:29;;;;;;;30.10;20.53;;;12.50;99.90;11.70;99137;;;;584194;246;24126;-83
2022/05/12 04:11:55;;;;;;;26.37;20.27;;;12.50;99.90;11.80;99152;;;;583562;246;24088;-82
2022/05/12 04:14:25;;;;;;;26.57;20.07;;;12.50;99.90;11.80;99141;;;;584508;246;24112;-83
2022/05/12 04:16:50;;;;;;;27.73;20.70;;;12.50;99.90;11.80;99172;;;;584402;243;24122;-81
2022/05/12 04:19:18;;;;;;;28.00;20.63;;;12.50;99.90;11.80;99169;;;;584605;246;24118;-84
2022/05/12 04:21:46;;;;;;;26.93;19.77;;;12.50;99.90;11.80;99139;;;;584326;242;24154;-85
2022/05/12 04:24:14;;;;;;;28.50;20.20;;;12.50;99.90;11.80;99194;;;;584292;246;25145;-85
2022/05/12 04:26:44;;;;;;;35.40;23.20;;;12.40;99.90;11.80;99156;;;;584346;246;24169;-84
2022/05/12 04:29:16;;;;;;;30.43;21.80;;;12.50;99.90;11.80;99166;;;;583937;246;24097;-84
2022/05/12 04:31:43;;;;;;;33.73;23.30;;;12.40;99.90;11.80;99186;;;;583553;246;24076;-83
2022/05/12 04:36:53;;;;;;;33.03;21.20;;;12.40;99.90;11.70;99158;;;;584970;244;25152;-82
2022/05/12 04:39:21;;;;;;;35.67;23.23;;;12.40;99.90;11.70;99146;;;;584721;241;24101;-83
2022/05/12 04:41:49;;;;;;;29.90;21.80;;;12.40;99.90;11.70;99157;;;;584538;241;24190;-83
2022/05/12 04:44:21;;;;;;;31.03;22.27;;;12.40;99.90;11.70;99149;;;;584301;246;24104;-85
2022/05/12 04:46:46;;;;;;;32.33;21.50;;;12.40;99.90;11.70;99133;;;;583327;242;24096;-81
2022/05/12 04:49:14;;;;;;;30.70;21.57;;;12.40;99.90;11.80;99104;;;;573135;242;24098;-81
2022/05/12 04:51:42;;;;;;;29.23;21.53;;;12.40;99.90;11.80;99098;;;;581855;246;24225;-82
2022/05/12 04:54:10;;;;;;;35.63;24.77;;;12.40;99.90;11.90;99099;;;;572041;246;24083;-83
2022/05/12 04:56:38;;;;;;;31.93;23.70;;;12.50;99.90;12.00;99091;;;;572949;246;24155;-82
2022/05/12 04:59:06;;;;;;;38.77;24.80;;;12.50;99.90;12.00;99112;;;;572773;246;24127;-82
2022/05/12 05:01:35;;;;;;;37.83;24.47;;;12.60;99.90;12.00;99110;;;;573117;245;24092;-82
2022/05/12 05:04:05;;;;;;;35.37;24.20;;;12.60;99.90;12.10;99106;;;;573203;246;24096;-83
2022/05/12 05:06:34;;;;;;;32.57;24.03;;;12.80;99.90;12.20;99093;;;;573142;246;24095;-83
2022/05/12 05:09:06;;;;;;;31.13;23.27;;;12.90;99.90;12.30;99091;;;;573232;246;24172;-83
2022/05/12 05:11:31;;;;;;;36.13;23.30;;;12.90;99.90;12.40;99085;;;;573023;246;24113;-84
2022/05/12 05:14:00;;;;;;;36.17;24.97;;;13.00;99.90;12.40;99081;;;;573001;246;24125;-83
2022/05/12 05:16:29;;;;;;;36.23;27.13;;;13.10;99.90;12.50;99096;;;;572918;246;24073;-84
2022/05/12 05:18:57;;;;;;;31.33;23.97;;;13.10;99.90;12.70;99083;;;;573160;246;24138;-82
2022/05/12 05:21:25;;;;;;;41.63;25.33;;;13.30;99.90;13.00;99100;;;;573380;246;24131;-83
2022/05/12 05:23:54;;;;;;;40.40;27.00;;;14.00;99.90;13.50;99122;;;;573103;246;24093;-83
2022/05/12 05:26:23;;;;;;;44.60;29.17;;;14.60;99.90;14.10;99141;;;;572945;246;25181;-83
2022/05/12 05:28:51;;;;;;;43.27;29.23;;;14.60;99.90;14.50;99137;;;;573169;246;24091;-83
2022/05/12 05:31:20;;;;;;;35.20;26.73;;;15.00;99.90;14.60;99130;;;;573190;246;24262;-82
2022/05/12 05:33:49;;;;;;;35.10;26.70;;;15.20;99.90;14.70;99133;;;;572668;246;25135;-83
2022/05/12 05:36:18;;;;;;;36.57;26.10;;;15.40;99.90;14.70;99165;;;;572960;246;24147;-81
2022/05/12 05:38:44;;;;;;;30.37;23.40;;;15.50;99.90;14.80;99171;;;;580945;243;24209;-81
2022/05/12 05:41:11;;;;;;;31.77;22.43;;;15.50;99.90;14.70;99188;;;;572711;246;24123;-81
2022/05/12 05:43:39;;;;;;;31.50;23.10;;;15.50;99.90;14.70;99194;;;;572678;246;24108;-80
2022/05/12 05:46:07;;;;;;;28.13;23.03;;;15.50;99.90;14.70;99194;;;;573228;246;24113;-82
2022/05/12 05:48:35;;;;;;;26.77;22.20;;;15.40;99.90;14.50;99214;;;;573659;245;24135;-81
2022/05/12 05:53:49;;;;;;;27.80;21.03;;;15.10;99.90;14.00;99200;;;;573614;246;24117;-82
2022/05/12 05:56:17;;;;;;;26.67;21.13;;;14.80;99.90;13.80;99200;;;;582228;246;24092;-81
2022/05/12 05:58:48;;;;;;;27.80;21.60;;;14.60;99.90;13.80;99192;;;;573132;246;24082;-82
2022/05/12 06:01:16;;;;;;;27.20;22.73;;;14.50;99.90;13.80;99212;;;;573089;246;24131;-83
2022/05/12 06:03:44;;;;;;;28.90;22.80;;;14.50;99.90;13.80;99227;;;;572475;246;24106;-81
2022/05/12 06:06:09;;;;;;;32.10;22.83;;;14.50;99.90;13.80;99183;;;;573503;246;24113;-79
2022/05/12 06:08:36;;;;;;;30.80;23.30;;;14.50;99.90;13.80;99204;;;;573800;246;24071;-82
2022/05/12 06:11:04;;;;;;;28.30;22.83;;;14.50;99.90;13.70;99212;;;;582312;242;24137;-83
2022/05/12 06:13:33;;;;;;;28.10;21.30;;;14.40;99.90;13.70;99188;;;;572284;246;24083;-83
2022/05/12 06:16:00;;;;;;;33.73;23.87;;;14.40;99.90;13.70;99177;;;;573347;246;24123;-82
2022/05/12 06:18:29;;;;;;;29.77;23.13;;;14.30;99.90;13.60;99199;;;;573602;246;24073;-86
2022/05/12 06:20:56;;;;;;;25.17;22.10;;;14.30;99.90;13.60;99224;;;;573831;246;24091;-83
2022/05/12 06:23:24;;;;;;;27.70;22.43;;;14.20;99.90;13.60;99234;;;;574402;246;24087;-83
2022/05/12 06:25:52;;;;;;;28.17;23.03;;;14.30;99.90;13.60;99239;;;;582658;246;24152;-83
2022/05/12 06:28:20;;;;;;;30.63;23.47;;;14.30;99.90;13.60;99250;;;;573090;242;24122;-85
2022/05/12 06:30:48;;;;;;;32.73;23.27;;;14.20;99.90;13.60;99257;;;;572905;246;24120;-84
2022/05/12 06:33:16;;;;;;;30.80;22.97;;;14.20;99.90;13.50;99256;;;;572784;246;24076;-85
2022/05/12 06:35:44;;;;;;;31.07;21.93;;;14.20;99.90;13.50;99264;;;;572624;246;24127;-84
2022/05/12 06:38:12;;;;;;;26.33;20.37;;;14.20;99.90;13.50;99265;;;;572895;246;24083;-84
2022/05/12 06:40:41;;;;;;;25.00;20.53;;;14.10;99.90;13.50;99284;;;;572750;246;24135;-84
2022/05/12 06:43:12;;;;;;;24.87;18.17;;;14.10;99.90;13.40;99297;;;;581378;246;24072;-83
2022/05/12 06:45:41;;;;;;;23.30;18.40;;;14.10;99.90;13.40;99294;;;;572565;246;24101;-83
2022/05/12 06:48:10;;;;;;;20.80;17.93;;;14.10;99.90;13.40;99297;;;;572085;246;24132;-83
2022/05/12 06:50:34;;;;;;;18.67;14.20;;;14.10;99.90;13.40;99308;;;;580771;243;24115;-83
2022/05/12 06:53:02;;;;;;;15.77;13.37;;;14.10;99.90;13.50;99295;;;;571152;246;24107;-83
2022/05/12 06:55:31;;;;;;;16.30;12.83;;;14.10;99.90;13.90;99289;;;;572595;246;24091;-84
2022/05/12 06:57:58;;;;;;;13.67;10.57;;;14.40;99.90;14.40;99299;;;;572735;246;24097;-82
2022/05/12 07:00:29;;;;;;;12.80;9.17;;;14.90;99.90;14.90;99309;;;;573650;245;24120;-84
2022/05/12 07:02:54;;;;;;;12.07;7.73;;;15.40;99.90;15.30;99322;;;;573844;246;24131;-85
2022/05/12 07:05:22;;;;;;;8.43;5.57;;;16.10;99.90;15.50;99321;;;;571944;246;24102;-84
2022/05/12 07:07:53;;;;;;;7.00;5.13;;;16.10;99.90;15.50;99326;;;;573346;246;24096;-84
2022/05/12 07:10:18;;;;;;;6.63;4.73;;;16.20;99.90;15.40;99337;;;;572843;246;24119;-84
2022/05/12 07:12:47;;;;;;;5.83;4.13;;;15.90;99.90;15.20;99362;;;;572994;246;24091;-84
2022/05/12 07:15:19;;;;;;;6.17;3.93;;;15.90;99.90;14.90;99369;;;;573166;246;24102;-85
2022/05/12 07:17:46;;;;;;;6.93;3.70;;;15.70;99.90;14.50;99377;;;;572993;246;24103;-85
2022/05/12 07:28:29;;;;;;;4.20;2.50;;;14.60;99.90;13.80;99426;;;;571801;246;24069;-83
2022/05/12 07:31:01;;;;;;;4.20;3.07;;;14.40;99.90;13.70;99437;;;;573371;246;24089;-84
2022/05/12 07:33:28;;;;;;;3.47;2.33;;;14.30;99.90;13.60;99440;;;;573381;246;24215;-84
2022/05/12 07:35:56;;;;;;;3.37;2.97;;;14.20;99.90;13.60;99435;;;;572706;246;24096;-83
2022/05/12 07:38:24;;;;;;;4.53;2.80;;;14.20;99.90;13.80;99439;;;;573059;246;25179;-85
2022/05/12 07:40:53;;;;;;;2.70;1.63;;;14.40;99.90;14.10;99450;;;;573312;246;24094;-85
2022/05/12 07:43:20;;;;;;;2.93;1.30;;;14.70;99.90;14.30;99445;;;;573326;246;24092;-82
2022/05/12 07:45:51;;;;;;;1.80;1.50;;;14.90;99.90;14.80;99450;;;;573176;246;24094;-84
2022/05/12 07:48:19;;;;;;;2.50;1.40;;;15.30;99.90;16.30;99452;;;;581329;243;24100;-85
2022/05/12 07:50:44;;;;;;;0.90;0.90;;;16.50;99.90;17.90;99456;;;;581250;246;24105;-84
2022/05/12 07:53:12;;;;;;;2.80;1.10;;;18.00;99.90;19.80;99448;;;;567678;246;35169;-85
2022/05/12 07:55:41;;;;;;;1.27;1.17;;;21.00;99.90;20.60;99438;;;;572567;246;24089;-85
2022/05/12 07:58:08;;;;;;;3.50;1.60;;;20.90;99.90;21.00;99438;;;;572725;246;24116;-84
2022/05/12 08:00:36;;;;;;;1.50;1.20;;;21.50;99.90;22.70;99446;;;;571030;246;23100;-84
2022/05/12 08:03:07;;;;;;;2.70;1.10;;;22.90;99.90;25.70;99462;;;;572712;246;23105;-81
2022/05/12 08:05:33;;;;;;;1.40;1.40;;;28.20;82.80;28.20;99458;;;;572285;246;23155;-82
2022/05/12 08:08:05;;;;;;;2.20;1.42;;;30.40;67.90;30.20;99466;;;;568263;246;35253;-85
2022/05/12 08:10:29;;;;;;;1.80;1.30;;;30.30;67.60;31.50;99470;;;;572665;242;23103;-82
2022/05/12 08:12:57;;;;;;;1.85;1.05;;;31.90;61.20;33.10;99469;;;;574226;246;23152;-86
2022/05/12 08:15:25;;;;;;;1.95;1.08;;;33.50;55.10;34.10;99510;;;;573707;246;23136;-81
2022/05/12 08:17:57;;;;;;;3.22;2.12;;;34.70;51.10;34.30;99519;;;;582147;246;23205;-80
2022/05/12 08:20:24;;;;;;;3.28;1.10;;;35.10;48.50;34.60;99544;;;;573470;246;24120;-80
2022/05/12 08:22:49;;;;;;;0.80;0.80;;;35.30;48.10;33.50;99554;;;;573398;246;23103;-82
2022/05/12 08:25:20;;;;;;;0.80;0.80;;;34.90;46.50;30.80;99557;;;;573622;246;23125;-82
2022/05/12 08:27:45;;;;;;;1.58;0.77;;;32.90;49.00;28.60;99554;;;;573389;246;23137;-82
2022/05/12 08:30:13;;;;;;;1.05;0.70;;;30.80;51.20;27.60;99575;;;;581625;246;23144;-82
2022/05/12 08:32:41;;;;;;;1.10;0.60;;;27.90;54.80;26.10;99582;;;;573006;246;24152;-83
2022/05/12 08:35:09;;;;;;;1.30;0.80;;;27.80;54.70;24.60;99584;;;;572883;246;24124;-84
2022/05/12 08:37:37;;;;;;;1.27;0.80;;;26.30;57.70;23.50;99585;;;;581911;246;23104;-82
2022/05/12 08:40:05;;;;;;;2.37;0.77;;;25.00;60.50;23.50;99581;;;;573043;246;23100;-80
2022/05/12 08:42:39;;;;;;;1.60;0.70;;;24.50;62.30;23.10;99603;;;;581685;246;24212;-82
2022/05/12 08:45:11;;;;;;;1.10;0.70;;;24.00;63.60;22.30;99620;;;;573084;246;24231;-81
2022/05/12 08:47:41;;;;;;;0.97;0.63;;;22.60;67.90;21.40;99633;;;;572381;246;23109;-80
2022/05/12 08:50:08;;;;;;;0.73;0.50;;;21.80;69.90;20.70;99621;;;;572966;246;24127;-80
2022/05/12 08:52:50;;;;;;;2.97;0.70;;;21.70;69.80;20.40;99627;;;;572700;246;24097;-81
2022/05/12 08:55:25;;;;;;;0.53;0.33;;;21.20;72.60;20.10;99625;;;;572864;246;24158;-82
2022/05/12 08:58:01;;;;;;;5.10;0.43;;;20.70;75.90;20.10;99632;;;;581278;246;23108;-83
2022/05/12 09:00:32;;;;;;;0.50;0.50;;;21.10;75.90;20.50;99630;;;;571091;246;24103;-83
2022/05/12 09:03:22;;;;;;;0.60;0.50;;;21.10;75.80;20.60;99637;;;;572269;246;24070;-81
2022/05/12 09:05:52;;;;;;;0.53;0.53;;;21.20;75.80;22.20;99655;;;;570908;246;24072;-81
2022/05/12 09:08:57;;;;;;;0.40;0.40;;;22.20;75.60;23.80;99657;;;;572428;246;24107;-82
2022/05/12 09:11:45;;;;;;;3.57;0.57;;;24.00;71.10;24.80;99650;;;;573073;246;24076;-82
2022/05/12 09:14:22;;;;;;;0.67;0.53;;;25.20;66.40;25.10;99653;;;;571053;246;23112;-81
2022/05/12 09:16:50;;;;;;;0.93;0.40;;;25.80;64.20;26.80;99655;;;;572029;246;23140;-86
2022/05/12 09:19:20;;;;;;;1.73;0.60;;;27.10;62.50;27.80;99669;;;;572472;246;24116;-83
2022/05/12 09:21:46;;;;;;;0.40;0.40;;;28.60;56.00;28.50;99683;;;;574864;245;23152;-82
2022/05/12 09:24:16;;;;;;;0.95;0.60;;;29.30;54.50;29.40;99680;;;;583170;245;23123;-85
2022/05/12 09:26:51;;;;;;;0.88;0.25;;;30.10;52.30;29.50;99683;;;;574136;246;23092;-82
2022/05/12 09:29:18;;;;;;;2.15;0.62;;;30.50;51.50;29.70;99692;;;;572465;246;23080;-85
2022/05/12 09:31:48;;;;;;;6.00;0.62;;;30.60;51.20;30.40;99710;;;;572210;246;23110;-87
2022/05/12 09:34:34;;;;;;;1.45;0.60;;;31.30;50.70;31.10;99719;;;;569489;246;23124;-87
2022/05/12 09:37:15;;;;;;;0.65;0.50;;;32.00;50.10;30.20;99741;;;;573469;246;24134;-88
2022/05/12 09:39:42;;;;;;;0.40;0.40;;;31.50;49.40;30.10;99756;;;;573260;246;24106;-87
2022/05/12 09:42:15;;;;;;;1.65;0.40;;;31.40;47.60;29.80;99741;;;;567307;246;46138;-84
2022/05/12 09:44:41;;;;;;;1.95;0.60;;;31.10;48.40;28.80;99744;;;;572937;246;23163;-82
2022/05/12 09:47:12;;;;;;;2.65;0.50;;;30.40;49.20;27.30;99764;;;;572493;246;23090;-82
2022/05/12 09:49:40;;;;;;;1.17;0.30;;;29.00;50.50;25.50;99765;;;;572907;246;23102;-83
2022/05/12 09:52:32;;;;;;;2.03;0.67;;;27.20;53.00;24.00;99765;;;;573332;246;23110;-87
2022/05/12 09:55:12;;;;;;;0.50;0.33;;;25.70;54.90;22.30;99762;;;;573257;246;23105;-84
2022/05/12 09:57:46;;;;;;;3.13;0.53;;;23.90;58.50;21.40;99772;;;;582253;246;24093;-83
2022/05/12 10:00:38;;;;;;;2.10;0.47;;;22.70;61.50;21.10;99774;;;;573013;246;24117;-82
2022/05/12 10:08:54;;;;;;;0.87;0.60;;;21.80;67.70;24.00;99784;;;;574779;246;24138;-79
2022/05/12 10:11:22;;;;;;;1.47;0.30;;;24.10;63.90;27.00;99804;;;;573555;246;24081;-82
2022/05/12 10:13:50;;;;;;;3.93;0.70;;;27.20;58.80;28.30;99811;;;;573854;246;24080;-81
2022/05/12 10:16:17;;;;;;;2.00;0.50;;;29.10;53.00;27.10;99827;;;;573194;246;23143;-85
2022/05/12 10:18:51;;;;;;;0.57;0.57;;;28.50;52.60;25.80;99821;;;;573496;246;23093;-86
2022/05/12 10:21:22;;;;;;;1.87;0.60;;;27.40;53.60;25.70;99830;;;;572731;246;23104;-86
2022/05/12 10:24:12;;;;;;;4.70;1.10;;;26.80;55.00;26.30;99830;;;;572920;246;23111;-85
2022/05/12 10:26:51;;;;;;;2.10;0.80;;;27.30;54.80;27.10;99842;;;;577808;246;35247;-86
2022/05/12 10:29:34;;;;;;;2.65;0.60;;;28.10;54.00;27.60;99846;;;;567585;246;35178;-82
2022/05/12 10:32:08;;;;;;;0.77;0.65;;;28.70;53.70;27.00;99861;;;;570882;246;23186;-87
2022/05/12 10:35:09;;;;;;;4.20;0.75;;;28.20;54.30;26.80;99868;;;;575051;245;23099;-83
2022/05/12 10:38:08;;;;;;;1.93;1.03;;;27.20;54.40;26.00;99872;;;;572594;246;23109;-85
2022/05/12 10:40:51;;;;;;;5.23;0.80;;;27.20;53.70;25.30;99869;;;;574420;246;23086;-82
2022/05/12 10:43:50;;;;;;;3.73;0.83;;;25.10;54.60;24.30;99866;;;;572691;246;23088;-85
2022/05/12 10:46:53;;;;;;;5.60;1.07;;;25.10;54.60;23.40;99881;;;;561162;253;23210;-82
2022/05/12 10:49:39;;;;;;;3.40;0.80;;;23.10;58.00;22.30;99902;;;;552621;256;24144;-85
2022/05/12 10:52:41;;;;;;;3.50;0.93;;;23.10;58.00;21.50;99892;;;;568946;246;24125;-84
2022/05/12 10:55:28;;;;;;;0.77;0.60;;;22.30;59.60;21.10;99887;;;;569211;246;24137;-83
2022/05/12 10:58:19;;;;;;;10.43;1.70;;;21.70;61.20;20.80;99883;;;;581735;243;24092;-84
2022/05/12 11:00:55;;;;;;;5.03;1.03;;;21.40;61.00;20.30;99876;;;;572984;246;24072;-84
2022/05/12 11:03:26;;;;;;;5.90;0.97;;;20.90;62.40;20.10;99892;;;;573433;246;23103;-84
2022/05/12 11:05:56;;;;;;;3.87;1.00;;;20.70;63.80;19.80;99876;;;;571251;246;24161;-84
2022/05/12 11:08:36;;;;;;;1.33;0.90;;;20.40;65.10;19.60;99893;;;;573194;246;23122;-84
2022/05/12 11:11:05;;;;;;;3.17;1.17;;;20.20;66.50;19.40;99890;;;;570820;246;24077;-82
2022/05/12 11:13:53;;;;;;;2.30;0.93;;;19.70;67.50;19.10;99887;;;;572573;242;24120;-84
2022/05/12 11:16:26;;;;;;;2.17;0.70;;;19.70;67.50;19.00;99895;;;;573280;246;24083;-83
2022/05/12 11:19:02;;;;;;;1.87;0.80;;;19.50;67.30;18.80;99887;;;;573522;246;24129;-82
2022/05/12 11:21:29;;;;;;;8.87;1.27;;;19.40;67.20;18.70;99914;;;;581853;246;24105;-81
2022/05/12 11:24:33;;;;;;;2.07;0.90;;;19.30;67.40;18.60;99912;;;;573072;246;24120;-82
2022/05/12 11:27:25;;;;;;;3.47;1.00;;;19.20;68.80;18.50;99924;;;;571146;246;24085;-80
2022/05/12 11:30:26;;;;;;;2.87;0.70;;;19.10;67.90;18.30;99923;;;;582120;242;24131;-80
2022/05/12 11:33:12;;;;;;;4.57;0.80;;;18.90;66.60;18.10;99922;;;;581421;246;24087;-81
2022/05/12 11:35:45;;;;;;;1.00;0.80;;;18.70;67.10;17.90;99921;;;;573332;246;24068;-83
2022/05/12 11:38:39;;;;;;;6.47;1.20;;;18.60;68.00;18.00;99927;;;;573717;246;24076;-81
2022/05/12 11:41:06;;;;;;;1.63;1.00;;;18.60;68.80;18.10;99925;;;;573153;246;24136;-82
2022/05/12 11:47:05;;;;;;;2.17;0.80;;;18.70;68.80;18.30;99926;;;;572506;245;24157;-82